createdAt,value
2022-08-28T00:00:31.832Z,20.37
2022-08-28T00:03:03.593Z,20.09
2022-08-28T00:05:34.798Z,20.26
2022-08-28T00:08:02.624Z,20.19
2022-08-28T00:10:30.738Z,20.36
2022-08-28T00:12:59.255Z,20.08
2022-08-28T00:15:30.412Z,20.29
2022-08-28T00:17:58.439Z,20.00
2022-08-28T00:20:28.539Z,19.96
2022-08-28T00:22:56.451Z,20.32
2022-08-28T00:25:26.000Z,19.74
2022-08-28T00:27:53.288Z,20.23
2022-08-28T00:30:24.443Z,19.90
2022-08-28T00:32:53.086Z,20.21
2022-08-28T00:35:23.625Z,19.77
2022-08-28T00:37:53.015Z,20.05
2022-08-28T00:40:30.437Z,20.09
2022-08-28T00:43:02.216Z,19.86
2022-08-28T00:45:32.416Z,19.95
2022-08-28T00:48:03.620Z,19.77
2022-08-28T00:50:54.196Z,20.00
2022-08-28T00:53:32.925Z,20.02
2022-08-28T00:56:02.664Z,19.71
2022-08-28T00:58:32.881Z,19.79
2022-08-28T01:01:26.994Z,20.08
2022-08-28T01:03:54.838Z,20.07
2022-08-28T01:06:22.993Z,19.82
2022-08-28T01:08:53.730Z,20.09
2022-08-28T01:11:25.935Z,20.23
2022-08-28T01:13:56.880Z,20.16
2022-08-28T01:16:33.816Z,20.06
2022-08-28T01:19:02.288Z,19.78
2022-08-28T01:21:32.590Z,20.06
2022-08-28T01:24:04.638Z,19.52
2022-08-28T01:26:32.715Z,19.75
2022-08-28T01:29:03.044Z,19.81
2022-08-28T01:31:33.155Z,19.77
2022-08-28T01:34:03.015Z,19.86
2022-08-28T01:36:33.322Z,19.73
2022-08-28T01:39:06.669Z,19.86
2022-08-28T01:41:35.406Z,19.77
2022-08-28T01:44:03.198Z,19.90
2022-08-28T01:46:31.614Z,20.09
2022-08-28T01:49:00.120Z,19.81
2022-08-28T01:51:29.663Z,19.71
2022-08-28T01:54:04.493Z,19.73
2022-08-28T01:56:32.420Z,19.95
2022-08-28T01:59:03.043Z,19.85
2022-08-28T02:01:30.908Z,19.80
2022-08-28T02:03:58.734Z,19.58
2022-08-28T02:06:26.643Z,19.63
2022-08-28T02:08:55.493Z,19.87
2022-08-28T02:11:25.905Z,19.69
2022-08-28T02:13:54.690Z,19.60
2022-08-28T02:16:24.193Z,19.24
2022-08-28T02:18:51.928Z,19.88
2022-08-28T02:21:20.484Z,19.62
2022-08-28T02:23:48.469Z,19.62
2022-08-28T02:26:16.568Z,19.63
2022-08-28T02:28:46.007Z,19.70
2022-08-28T02:31:13.817Z,19.73
2022-08-28T02:33:43.424Z,19.62
2022-08-28T02:36:12.949Z,19.59
2022-08-28T02:38:40.853Z,19.49
2022-08-28T02:41:08.605Z,19.58
2022-08-28T02:43:36.499Z,19.58
2022-08-28T02:46:06.686Z,19.57
2022-08-28T02:48:36.763Z,19.53
2022-08-28T02:51:06.755Z,19.46
2022-08-28T02:53:34.942Z,19.30
2022-08-28T02:56:02.941Z,19.29
2022-08-28T02:58:32.665Z,19.51
2022-08-28T03:01:03.092Z,19.03
2022-08-28T03:03:32.445Z,19.34
2022-08-28T03:06:00.577Z,19.27
2022-08-28T03:08:30.184Z,19.20
2022-08-28T03:10:57.973Z,19.23
2022-08-28T03:13:26.986Z,19.37
2022-08-28T03:15:56.141Z,19.31
2022-08-28T03:18:24.332Z,19.36
2022-08-28T03:20:55.438Z,19.12
2022-08-28T03:23:29.109Z,19.12
2022-08-28T03:26:00.457Z,19.26
2022-08-28T03:28:32.086Z,19.20
2022-08-28T03:31:00.024Z,19.31
2022-08-28T03:33:29.360Z,19.12
2022-08-28T03:35:59.299Z,18.81
2022-08-28T03:38:27.272Z,19.29
2022-08-28T03:40:55.013Z,19.14
2022-08-28T03:43:24.611Z,19.15
2022-08-28T03:45:58.055Z,19.07
2022-08-28T03:48:26.692Z,19.33
2022-08-28T03:50:54.565Z,19.05
2022-08-28T03:53:26.913Z,19.31
2022-08-28T03:55:55.600Z,19.19
2022-08-28T03:58:24.400Z,19.13
2022-08-28T04:00:52.213Z,19.04
2022-08-28T04:03:20.324Z,19.13
2022-08-28T04:05:48.662Z,19.18
2022-08-28T04:08:17.849Z,19.22
2022-08-28T04:10:48.162Z,19.22
2022-08-28T04:13:17.572Z,19.25
2022-08-28T04:15:45.431Z,19.28
2022-08-28T04:18:13.863Z,19.21
2022-08-28T04:20:42.128Z,19.17
2022-08-28T04:23:14.185Z,19.00
2022-08-28T04:25:41.959Z,19.02
2022-08-28T04:28:11.132Z,19.15
2022-08-28T04:30:42.268Z,19.19
2022-08-28T04:33:10.436Z,19.28
2022-08-28T04:35:38.204Z,19.30
2022-08-28T04:38:06.098Z,19.22
2022-08-28T04:40:33.917Z,19.28
2022-08-28T04:43:03.475Z,19.07
2022-08-28T04:45:32.559Z,19.14
2022-08-28T04:48:00.342Z,19.00
2022-08-28T04:50:33.475Z,18.97
2022-08-28T04:53:02.990Z,19.12
2022-08-28T04:55:54.288Z,19.01
2022-08-28T04:58:18.787Z,19.15
2022-08-28T05:00:54.664Z,19.10
2022-08-28T05:03:23.145Z,19.11
2022-08-28T05:05:52.916Z,18.95
2022-08-28T05:08:23.102Z,18.85
2022-08-28T05:10:51.212Z,18.94
2022-08-28T05:13:19.239Z,18.78
2022-08-28T05:15:49.272Z,18.71
2022-08-28T05:18:20.676Z,18.89
2022-08-28T05:20:48.842Z,18.99
2022-08-28T05:23:17.397Z,18.77
2022-08-28T05:25:47.432Z,18.90
2022-08-28T05:28:16.734Z,18.83
2022-08-28T05:30:45.265Z,18.89
2022-08-28T05:33:14.457Z,18.52
2022-08-28T05:35:46.993Z,18.78
2022-08-28T05:38:16.893Z,18.47
2022-08-28T05:40:46.004Z,18.36
2022-08-28T05:43:15.192Z,18.67
2022-08-28T05:45:44.269Z,18.63
2022-08-28T05:48:12.911Z,18.70
2022-08-28T05:50:43.761Z,18.75
2022-08-28T05:53:17.292Z,18.55
2022-08-28T05:55:45.055Z,18.74
2022-08-28T05:58:33.373Z,18.79
2022-08-28T06:01:09.624Z,18.64
2022-08-28T06:03:38.376Z,18.33
2022-08-28T06:06:06.588Z,18.57
2022-08-28T06:08:37.584Z,18.76
2022-08-28T06:11:05.647Z,18.85
2022-08-28T06:13:35.920Z,18.33
2022-08-28T06:16:04.822Z,18.24
2022-08-28T06:18:35.049Z,18.74
2022-08-28T06:21:03.667Z,18.70
2022-08-28T06:23:31.862Z,18.78
2022-08-28T06:26:01.013Z,18.46
2022-08-28T06:28:29.097Z,18.61
2022-08-28T06:31:18.552Z,18.72
2022-08-28T06:33:46.041Z,18.37
2022-08-28T06:36:13.851Z,18.72
2022-08-28T06:38:46.281Z,18.49
2022-08-28T06:41:15.721Z,18.50
2022-08-28T06:43:43.761Z,18.61
2022-08-28T06:46:11.778Z,18.77
2022-08-28T06:48:39.539Z,18.97
2022-08-28T06:51:09.309Z,18.60
2022-08-28T06:53:38.457Z,18.87
2022-08-28T06:56:08.582Z,18.94
2022-08-28T06:58:39.404Z,18.62
2022-08-28T07:01:10.290Z,18.72
2022-08-28T07:03:44.236Z,18.98
2022-08-28T07:06:14.408Z,18.71
2022-08-28T07:08:43.097Z,18.86
2022-08-28T07:11:13.108Z,19.02
2022-08-28T07:13:42.572Z,19.15
2022-08-28T07:16:11.249Z,18.79
2022-08-28T07:18:39.069Z,19.17
2022-08-28T07:21:12.147Z,18.64
2022-08-28T07:23:42.024Z,18.77
2022-08-28T07:26:11.920Z,19.07
2022-08-28T07:28:39.754Z,19.09
2022-08-28T07:31:10.950Z,19.39
2022-08-28T07:33:39.470Z,19.05
2022-08-28T07:36:08.513Z,19.25
2022-08-28T07:38:43.580Z,18.95
2022-08-28T07:41:15.645Z,19.12
2022-08-28T07:44:00.896Z,19.52
2022-08-28T07:46:32.444Z,19.46
2022-08-28T07:49:00.683Z,19.73
2022-08-28T07:51:29.658Z,19.92
2022-08-28T07:53:58.160Z,19.69
2022-08-28T07:56:27.369Z,19.78
2022-08-28T07:58:56.727Z,20.05
2022-08-28T08:01:24.954Z,20.61
2022-08-28T08:03:57.652Z,20.56
2022-08-28T08:06:33.910Z,20.20
2022-08-28T08:09:04.091Z,20.51
2022-08-28T08:11:32.519Z,20.73
2022-08-28T08:14:03.843Z,20.64
2022-08-28T08:16:35.443Z,20.34
2022-08-28T08:19:04.624Z,20.36
2022-08-28T08:21:33.030Z,20.19
2022-08-28T08:24:00.768Z,20.31
2022-08-28T08:26:29.975Z,20.31
2022-08-28T08:28:58.811Z,20.49
2022-08-28T08:31:28.214Z,20.35
2022-08-28T08:33:57.250Z,20.79
2022-08-28T08:36:27.535Z,20.70
2022-08-28T08:38:59.982Z,20.56
2022-08-28T08:41:31.216Z,20.54
2022-08-28T08:44:02.581Z,20.73
2022-08-28T08:46:34.399Z,20.84
2022-08-28T08:49:05.344Z,20.85
2022-08-28T08:51:41.606Z,20.73
2022-08-28T08:54:11.697Z,20.74
2022-08-28T08:56:41.380Z,20.61
2022-08-28T08:59:12.361Z,20.74
2022-08-28T09:01:44.671Z,20.83
2022-08-28T09:04:24.597Z,21.02
2022-08-28T09:06:58.332Z,20.96
2022-08-28T09:09:29.220Z,20.62
2022-08-28T09:12:00.003Z,20.90
2022-08-28T09:14:34.841Z,20.84
2022-08-28T09:17:03.313Z,20.94
2022-08-28T09:19:31.109Z,20.91
2022-08-28T09:22:00.184Z,20.83
2022-08-28T09:24:31.785Z,20.92
2022-08-28T09:27:01.779Z,21.18
2022-08-28T09:29:32.885Z,21.38
2022-08-28T09:32:17.783Z,21.39
2022-08-28T09:35:03.417Z,21.34
2022-08-28T09:37:33.118Z,21.26
2022-08-28T09:40:22.885Z,21.46
2022-08-28T09:43:22.956Z,21.56
2022-08-28T09:46:00.058Z,21.59
2022-08-28T09:48:34.097Z,21.59
2022-08-28T09:51:04.725Z,21.49
2022-08-28T09:53:36.537Z,21.54
2022-08-28T09:56:10.948Z,21.58
2022-08-28T09:58:41.177Z,21.69
2022-08-28T10:01:15.704Z,21.65
2022-08-28T10:03:48.820Z,21.57
2022-08-28T10:06:20.100Z,21.95
2022-08-28T10:09:10.325Z,21.90
2022-08-28T10:11:46.882Z,21.78
2022-08-28T10:14:24.522Z,21.89
2022-08-28T10:16:56.870Z,22.02
2022-08-28T10:19:36.488Z,21.64
2022-08-28T10:22:12.152Z,21.70
2022-08-28T10:24:55.659Z,21.41
2022-08-28T10:27:38.228Z,21.44
2022-08-28T10:30:12.984Z,21.61
2022-08-28T10:32:55.445Z,21.81
2022-08-28T10:35:25.628Z,21.69
2022-08-28T10:38:02.359Z,21.99
2022-08-28T10:40:34.609Z,21.92
2022-08-28T10:43:06.119Z,21.95
2022-08-28T10:45:34.744Z,21.79
2022-08-28T10:48:07.184Z,21.88
2022-08-28T10:50:42.443Z,21.75
2022-08-28T10:53:13.741Z,21.86
2022-08-28T10:55:52.264Z,21.86
2022-08-28T10:58:24.941Z,21.94
2022-08-28T11:00:55.128Z,21.91
2022-08-28T11:03:34.285Z,21.98
2022-08-28T11:06:05.758Z,21.90
2022-08-28T11:08:35.345Z,22.04
2022-08-28T11:11:06.809Z,22.23
2022-08-28T11:13:57.088Z,22.23
2022-08-28T11:16:27.805Z,22.19
2022-08-28T11:19:44.949Z,22.07
2022-08-28T11:22:18.679Z,22.20
2022-08-28T11:25:01.724Z,22.25
2022-08-28T11:27:34.012Z,22.27
2022-08-28T11:30:32.571Z,22.09
2022-08-28T11:33:07.379Z,22.20
2022-08-28T11:35:42.697Z,21.89
2022-08-28T11:38:11.233Z,21.99
2022-08-28T11:40:54.779Z,22.02
2022-08-28T11:43:35.750Z,22.15
2022-08-28T11:46:13.407Z,22.25
2022-08-28T11:48:49.624Z,22.10
2022-08-28T11:51:45.430Z,22.01
2022-08-28T11:54:23.843Z,22.16
2022-08-28T11:56:54.872Z,22.10
2022-08-28T11:59:49.788Z,22.31
2022-08-28T12:02:44.010Z,22.52
2022-08-28T12:05:13.833Z,22.66
2022-08-28T12:07:43.028Z,22.31
2022-08-28T12:10:46.281Z,22.49
2022-08-28T12:13:49.355Z,22.37
2022-08-28T12:16:17.131Z,22.61
2022-08-28T12:19:01.079Z,22.72
2022-08-28T12:21:29.709Z,22.96
2022-08-28T12:24:05.367Z,22.39
2022-08-28T12:26:39.865Z,22.45
2022-08-28T12:29:22.291Z,22.33
2022-08-28T12:32:14.768Z,22.32
2022-08-28T12:34:51.908Z,22.13
2022-08-28T12:37:39.544Z,22.07
2022-08-28T12:40:21.926Z,22.33
2022-08-28T12:42:55.269Z,22.50
2022-08-28T12:45:28.059Z,22.51
2022-08-28T12:47:57.972Z,22.65
2022-08-28T12:50:29.016Z,22.52
2022-08-28T12:52:58.985Z,22.30
2022-08-28T12:55:27.105Z,21.98
2022-08-28T12:57:55.067Z,22.12
2022-08-28T13:00:26.825Z,22.18
2022-08-28T13:02:56.505Z,22.37
2022-08-28T13:05:35.171Z,22.38
2022-08-28T13:08:04.824Z,22.66
2022-08-28T13:10:36.692Z,22.52
2022-08-28T13:13:07.161Z,22.65
2022-08-28T13:15:55.357Z,22.64
2022-08-28T13:18:36.980Z,22.76
2022-08-28T13:21:32.832Z,22.63
2022-08-28T13:24:43.389Z,22.54
2022-08-28T13:27:20.198Z,22.86
2022-08-28T13:30:05.314Z,22.81
2022-08-28T13:32:35.969Z,22.84
2022-08-28T13:35:13.515Z,23.07
2022-08-28T13:37:44.536Z,22.98
2022-08-28T13:40:38.200Z,22.96
2022-08-28T13:43:06.823Z,22.80
2022-08-28T13:45:43.189Z,22.66
2022-08-28T13:48:11.996Z,22.54
2022-08-28T13:50:41.557Z,22.59
2022-08-28T13:53:09.433Z,22.49
2022-08-28T13:55:38.523Z,22.49
2022-08-28T13:58:06.768Z,22.59
2022-08-28T14:00:37.458Z,22.71
2022-08-28T14:03:25.537Z,22.98
2022-08-28T14:05:54.196Z,22.92
2022-08-28T14:08:21.957Z,22.93
2022-08-28T14:10:51.101Z,22.91
2022-08-28T14:13:21.128Z,22.94
2022-08-28T14:15:48.839Z,22.90
2022-08-28T14:18:16.645Z,22.75
2022-08-28T14:20:44.548Z,22.88
2022-08-28T14:23:12.431Z,22.74
2022-08-28T14:25:42.424Z,22.70
2022-08-28T14:28:11.620Z,22.69
2022-08-28T14:30:42.792Z,22.52
2022-08-28T14:33:10.736Z,22.66
2022-08-28T14:35:40.339Z,22.74
2022-08-28T14:38:08.286Z,22.48
2022-08-28T14:40:40.235Z,22.31
2022-08-28T14:43:09.681Z,22.34
2022-08-28T14:45:44.261Z,22.57
2022-08-28T14:48:12.094Z,22.27
2022-08-28T14:50:42.191Z,22.29
2022-08-28T14:53:10.897Z,22.22
2022-08-28T14:55:42.481Z,22.18
2022-08-28T14:58:10.309Z,22.28
2022-08-28T15:00:41.137Z,22.58
2022-08-28T15:03:10.544Z,22.36
2022-08-28T15:05:38.463Z,22.52
2022-08-28T15:08:07.828Z,22.81
2022-08-28T15:10:35.677Z,22.78
2022-08-28T15:13:03.836Z,22.31
2022-08-28T15:15:35.540Z,22.18
2022-08-28T15:18:03.244Z,22.21
2022-08-28T15:20:33.280Z,22.23
2022-08-28T15:23:00.949Z,22.31
2022-08-28T15:25:31.597Z,22.10
2022-08-28T15:27:59.320Z,21.99
2022-08-28T15:30:27.339Z,22.43
2022-08-28T15:32:55.058Z,22.31
2022-08-28T15:35:22.977Z,22.21
2022-08-28T15:37:53.407Z,22.23
2022-08-28T15:40:39.248Z,22.45
2022-08-28T15:43:07.144Z,22.24
2022-08-28T15:45:37.044Z,22.28
2022-08-28T15:48:05.159Z,22.20
2022-08-28T15:50:32.936Z,22.30
2022-08-28T15:53:27.290Z,22.14
2022-08-28T15:55:54.968Z,22.09
2022-08-28T15:58:22.753Z,22.20
2022-08-28T16:00:50.902Z,22.06
2022-08-28T16:03:18.872Z,21.88
2022-08-28T16:05:46.602Z,22.10
2022-08-28T16:08:15.741Z,22.23
2022-08-28T16:10:48.431Z,22.10
2022-08-28T16:13:17.334Z,22.30
2022-08-28T16:15:45.863Z,22.34
2022-08-28T16:18:14.735Z,22.12
2022-08-28T16:20:44.413Z,22.08
2022-08-28T16:23:13.796Z,22.12
2022-08-28T16:25:42.895Z,21.98
2022-08-28T16:28:10.884Z,21.72
2022-08-28T16:30:43.861Z,21.88
2022-08-28T16:33:12.294Z,21.82
2022-08-28T16:35:42.462Z,21.93
2022-08-28T16:38:17.629Z,21.92
2022-08-28T16:40:47.434Z,21.98
2022-08-28T16:43:15.568Z,21.71
2022-08-28T16:45:44.460Z,21.84
2022-08-28T16:48:13.951Z,21.77
2022-08-28T16:50:42.784Z,21.78
2022-08-28T16:53:10.861Z,21.60
2022-08-28T16:55:39.243Z,21.81
2022-08-28T16:58:08.308Z,21.68
2022-08-28T17:00:52.425Z,21.67
2022-08-28T17:03:26.301Z,21.48
2022-08-28T17:05:56.378Z,21.56
2022-08-28T17:08:24.116Z,21.66
2022-08-28T17:10:51.932Z,21.51
2022-08-28T17:13:21.133Z,21.73
2022-08-28T17:15:48.861Z,21.81
2022-08-28T17:18:16.663Z,21.87
2022-08-28T17:21:02.596Z,21.72
2022-08-28T17:23:30.326Z,21.58
2022-08-28T17:25:58.046Z,21.37
2022-08-28T17:28:27.087Z,21.65
2022-08-28T17:30:54.873Z,21.43
2022-08-28T17:33:22.695Z,21.67
2022-08-28T17:35:50.445Z,21.65
2022-08-28T17:38:19.903Z,21.34
2022-08-28T17:40:47.631Z,21.49
2022-08-28T17:43:15.377Z,21.49
2022-08-28T17:45:44.411Z,21.36
2022-08-28T17:48:12.203Z,21.35
2022-08-28T17:50:40.171Z,21.74
2022-08-28T17:53:07.853Z,21.54
2022-08-28T17:55:36.879Z,21.26
2022-08-28T17:58:04.696Z,21.46
2022-08-28T18:00:33.352Z,21.56
2022-08-28T18:03:02.990Z,21.24
2022-08-28T18:05:30.744Z,21.68
2022-08-28T18:07:58.936Z,21.40
2022-08-28T18:10:27.603Z,21.29
2022-08-28T18:12:55.330Z,21.22
2022-08-28T18:15:23.284Z,21.45
2022-08-28T18:17:51.422Z,21.32
2022-08-28T18:20:20.494Z,21.30
2022-08-28T18:22:48.407Z,21.45
2022-08-28T18:25:30.645Z,21.41
2022-08-28T18:27:58.384Z,21.10
2022-08-28T18:30:26.621Z,21.00
2022-08-28T18:32:54.920Z,21.18
2022-08-28T18:35:31.621Z,21.21
2022-08-28T18:38:00.098Z,21.11
2022-08-28T18:40:28.350Z,21.24
2022-08-28T18:42:56.145Z,21.03
2022-08-28T18:45:23.949Z,20.80
2022-08-28T18:47:52.275Z,21.29
2022-08-28T18:50:22.108Z,21.19
2022-08-28T18:52:52.276Z,21.02
2022-08-28T18:55:20.816Z,20.86
2022-08-28T18:57:48.642Z,21.19
2022-08-28T19:00:19.192Z,20.83
2022-08-28T19:02:46.997Z,20.85
2022-08-28T19:05:15.757Z,20.77
2022-08-28T19:07:43.593Z,20.57
2022-08-28T19:10:32.201Z,20.77
2022-08-28T19:13:04.031Z,20.88
2022-08-28T19:15:32.168Z,20.98
2022-08-28T19:18:01.307Z,21.31
2022-08-28T19:20:30.044Z,20.89
2022-08-28T19:22:58.253Z,20.96
2022-08-28T19:25:30.284Z,20.96
2022-08-28T19:28:06.447Z,20.86
2022-08-28T19:30:34.879Z,21.05
2022-08-28T19:33:06.483Z,21.24
2022-08-28T19:35:34.621Z,21.04
2022-08-28T19:38:06.863Z,21.16
2022-08-28T19:40:35.994Z,21.30
2022-08-28T19:43:06.843Z,21.26
2022-08-28T19:45:38.380Z,21.08
2022-08-28T19:48:10.762Z,21.04
2022-08-28T19:50:38.780Z,21.24
2022-08-28T19:53:07.038Z,21.29
2022-08-28T19:55:36.468Z,21.27
2022-08-28T19:58:06.530Z,20.79
2022-08-28T20:00:35.393Z,20.94
2022-08-28T20:03:04.133Z,21.03
2022-08-28T20:05:31.848Z,21.02
2022-08-28T20:07:59.637Z,21.31
2022-08-28T20:10:27.444Z,21.19
2022-08-28T20:12:56.719Z,21.21
2022-08-28T20:15:24.828Z,21.02
2022-08-28T20:17:52.584Z,21.14
2022-08-28T20:20:24.607Z,21.05
2022-08-28T20:22:54.628Z,21.32
2022-08-28T20:25:24.060Z,21.34
2022-08-28T20:27:51.728Z,21.06
2022-08-28T20:30:20.924Z,21.15
2022-08-28T20:32:48.924Z,20.91
2022-08-28T20:35:16.861Z,21.22
2022-08-28T20:37:49.915Z,21.12
2022-08-28T20:40:19.676Z,21.16
2022-08-28T20:42:49.068Z,21.24
2022-08-28T20:45:18.060Z,20.98
2022-08-28T20:47:47.399Z,21.09
2022-08-28T20:50:15.824Z,21.01
2022-08-28T20:52:43.848Z,21.16
2022-08-28T20:55:12.990Z,20.97
2022-08-28T20:57:40.866Z,21.13
2022-08-28T21:00:11.233Z,21.08
2022-08-28T21:02:38.988Z,20.95
2022-08-28T21:05:08.994Z,20.51
2022-08-28T21:07:36.754Z,20.97
2022-08-28T21:10:07.900Z,20.92
2022-08-28T21:12:37.993Z,21.02
2022-08-28T21:15:09.916Z,20.67
2022-08-28T21:17:46.884Z,20.75
2022-08-28T21:20:16.520Z,21.01
2022-08-28T21:22:49.016Z,20.88
2022-08-28T21:25:16.928Z,21.04
2022-08-28T21:27:45.231Z,20.84
2022-08-28T21:30:14.931Z,20.92
2022-08-28T21:32:42.680Z,20.79
2022-08-28T21:35:12.054Z,20.85
2022-08-28T21:37:42.159Z,20.79
2022-08-28T21:40:12.544Z,20.78
2022-08-28T21:42:40.481Z,20.86
2022-08-28T21:45:12.005Z,20.78
2022-08-28T21:47:40.733Z,20.57
2022-08-28T21:50:09.261Z,20.94
2022-08-28T21:52:37.071Z,20.89
2022-08-28T21:55:09.351Z,20.83
2022-08-28T21:57:37.308Z,20.85
2022-08-28T22:00:08.697Z,20.67
2022-08-28T22:02:36.641Z,20.95
2022-08-28T22:05:04.848Z,20.79
2022-08-28T22:07:32.702Z,20.64
2022-08-28T22:10:00.417Z,20.80
2022-08-28T22:12:29.450Z,20.75
2022-08-28T22:15:00.495Z,20.64
2022-08-28T22:17:28.336Z,20.78
2022-08-28T22:19:56.064Z,20.84
2022-08-28T22:22:41.639Z,20.58
2022-08-28T22:25:09.847Z,20.51
2022-08-28T22:27:38.949Z,20.59
2022-08-28T22:30:07.263Z,20.42
2022-08-28T22:32:35.071Z,20.66
2022-08-28T22:35:04.948Z,20.44
2022-08-28T22:37:32.910Z,20.47
2022-08-28T22:40:00.689Z,20.53
2022-08-28T22:42:28.464Z,20.60
2022-08-28T22:44:57.598Z,20.57
2022-08-28T22:47:25.541Z,20.22
2022-08-28T22:49:56.068Z,20.55
2022-08-28T22:52:23.824Z,20.64
2022-08-28T22:54:53.186Z,20.00
2022-08-28T22:57:21.409Z,20.50
2022-08-28T22:59:49.224Z,20.49
2022-08-28T23:02:19.986Z,20.56
2022-08-28T23:04:51.301Z,20.49
2022-08-28T23:07:20.156Z,20.69
2022-08-28T23:09:48.004Z,20.43
2022-08-28T23:12:15.746Z,20.56
2022-08-28T23:14:48.250Z,20.70
2022-08-28T23:17:18.601Z,20.02
2022-08-28T23:19:48.011Z,20.46
2022-08-28T23:22:16.388Z,20.40
2022-08-28T23:24:46.145Z,20.56
2022-08-28T23:27:34.772Z,20.44
2022-08-28T23:30:03.058Z,20.44
2022-08-28T23:32:34.114Z,20.56
2022-08-28T23:35:07.331Z,20.35
2022-08-28T23:37:36.645Z,20.37
2022-08-28T23:40:06.768Z,20.08
2022-08-28T23:42:34.732Z,20.26
2022-08-28T23:45:02.849Z,20.38
2022-08-28T23:47:34.456Z,20.56
2022-08-28T23:50:11.966Z,20.28
2022-08-28T23:52:39.884Z,20.34
2022-08-28T23:55:08.840Z,20.39
2022-08-28T23:57:37.698Z,20.37
